VIR98 EGPF-EGLL
Flight info
| Callsign | VIR98 |
|---|---|
| Flight time | 0h 52m |
| Altitude | 25000 |
| Route | NORBO T256 ORVUL/N0460F230 T256 DCS N57 POL P18 LISTO L612 HON |
| Aircraft | B744/H-SDE3FGHIM1M2RWXY/LB1 |
Departure
| Time | 2026-05-07 19:16 |
|---|---|
| Airport | Glasgow Airport (EGPF) |
Arrival
| Time | 2026-05-07 20:09 |
|---|---|
| Airport | London Heathrow Airport (EGLL) |
| Time | Latitude | Longitude | Altitude | Speed | Heading |
|---|---|---|---|---|---|
| 2026-05-07 18:59 | 55.86454 | -4.43771 | 41 ft | 0 kts | 62° |
| 2026-05-07 19:07 | 55.86449 | -4.43786 | 41 ft | 2 kts | 62° |
| 2026-05-07 19:08 | 55.86441 | -4.43812 | 41 ft | 2 kts | 62° |
| 2026-05-07 19:08 | 55.86433 | -4.43838 | 40 ft | 2 kts | 61° |
| 2026-05-07 19:08 | 55.86425 | -4.43863 | 41 ft | 2 kts | 60° |
| 2026-05-07 19:08 | 55.86414 | -4.43883 | 40 ft | 2 kts | 28° |
| 2026-05-07 19:09 | 55.86398 | -4.43889 | 41 ft | 2 kts | 344° |
| 2026-05-07 19:09 | 55.86384 | -4.43875 | 38 ft | 2 kts | 324° |
| 2026-05-07 19:09 | 55.86374 | -4.43862 | 39 ft | 0 kts | 326° |
| 2026-05-07 19:10 | 55.86375 | -4.43864 | 37 ft | 2 kts | 326° |
| 2026-05-07 19:11 | 55.86432 | -4.43924 | 42 ft | 17 kts | 331° |
| 2026-05-07 19:11 | 55.86547 | -4.44031 | 39 ft | 12 kts | 350° |
| 2026-05-07 19:11 | 55.86610 | -4.43983 | 39 ft | 9 kts | 41° |
| 2026-05-07 19:11 | 55.86667 | -4.43891 | 38 ft | 15 kts | 42° |
| 2026-05-07 19:12 | 55.86736 | -4.43722 | 38 ft | 18 kts | 69° |
| 2026-05-07 19:12 | 55.86764 | -4.43520 | 40 ft | 17 kts | 77° |
| 2026-05-07 19:12 | 55.86792 | -4.43345 | 39 ft | 13 kts | 72° |
| 2026-05-07 19:12 | 55.86823 | -4.43170 | 42 ft | 17 kts | 73° |
| 2026-05-07 19:13 | 55.86858 | -4.42995 | 42 ft | 10 kts | 53° |
| 2026-05-07 19:13 | 55.86962 | -4.42877 | 40 ft | 26 kts | 25° |
| 2026-05-07 19:13 | 55.87131 | -4.42760 | 38 ft | 26 kts | 21° |
| 2026-05-07 19:13 | 55.87300 | -4.42646 | 38 ft | 25 kts | 20° |
| 2026-05-07 19:14 | 55.87425 | -4.42526 | 38 ft | 17 kts | 49° |
| 2026-05-07 19:14 | 55.87497 | -4.42384 | 38 ft | 16 kts | 47° |
| 2026-05-07 19:14 | 55.87576 | -4.42237 | 36 ft | 16 kts | 46° |
| 2026-05-07 19:14 | 55.87657 | -4.42085 | 33 ft | 18 kts | 46° |
| 2026-05-07 19:15 | 55.87748 | -4.41918 | 34 ft | 19 kts | 46° |
| 2026-05-07 19:15 | 55.87836 | -4.41845 | 32 ft | 12 kts | 7° |
| 2026-05-07 19:15 | 55.87897 | -4.41865 | 34 ft | 6 kts | 319° |
| 2026-05-07 19:15 | 55.87916 | -4.41956 | 35 ft | 9 kts | 257° |
| 2026-05-07 19:16 | 55.87870 | -4.42061 | 35 ft | 14 kts | 226° |
| 2026-05-07 19:16 | 55.87626 | -4.42522 | 40 ft | 98 kts | 226° |
| 2026-05-07 19:16 | 55.86951 | -4.43779 | 57 ft | 177 kts | 226° |
| 2026-05-07 19:16 | 55.86052 | -4.45398 | 1007 ft | 181 kts | 225° |
| 2026-05-07 19:17 | 55.85137 | -4.47010 | 1722 ft | 188 kts | 225° |
| 2026-05-07 19:17 | 55.84176 | -4.48707 | 2249 ft | 200 kts | 225° |
| 2026-05-07 19:17 | 55.83147 | -4.50527 | 2669 ft | 217 kts | 225° |
| 2026-05-07 19:17 | 55.82039 | -4.52489 | 2977 ft | 232 kts | 225° |
| 2026-05-07 19:18 | 55.80864 | -4.54569 | 3241 ft | 244 kts | 225° |
| 2026-05-07 19:18 | 55.79635 | -4.56744 | 3517 ft | 253 kts | 225° |
| 2026-05-07 19:18 | 55.78377 | -4.59009 | 3730 ft | 262 kts | 226° |
| 2026-05-07 19:18 | 55.77085 | -4.61313 | 4383 ft | 265 kts | 225° |
| 2026-05-07 19:19 | 55.75721 | -4.63550 | 5276 ft | 269 kts | 213° |
| 2026-05-07 19:19 | 55.73965 | -4.64684 | 6167 ft | 273 kts | 185° |
| 2026-05-07 19:19 | 55.72085 | -4.64217 | 7042 ft | 278 kts | 157° |
| 2026-05-07 19:19 | 55.70518 | -4.62233 | 7905 ft | 282 kts | 129° |
| 2026-05-07 19:20 | 55.69436 | -4.59317 | 8735 ft | 285 kts | 120° |
| 2026-05-07 19:20 | 55.68401 | -4.56286 | 9565 ft | 289 kts | 124° |
| 2026-05-07 19:20 | 55.67195 | -4.53409 | 10358 ft | 294 kts | 131° |
| 2026-05-07 19:20 | 55.65688 | -4.50865 | 10949 ft | 307 kts | 143° |
| 2026-05-07 19:21 | 55.63885 | -4.48662 | 11437 ft | 324 kts | 147° |
| 2026-05-07 19:21 | 55.61935 | -4.46439 | 11906 ft | 343 kts | 146° |
| 2026-05-07 19:21 | 55.59939 | -4.43914 | 12350 ft | 362 kts | 143° |
| 2026-05-07 19:21 | 55.57880 | -4.41149 | 12805 ft | 382 kts | 143° |
| 2026-05-07 19:22 | 55.55685 | -4.38289 | 13287 ft | 401 kts | 144° |
| 2026-05-07 19:22 | 55.53378 | -4.35385 | 14057 ft | 412 kts | 144° |
| 2026-05-07 19:22 | 55.51023 | -4.32402 | 14951 ft | 420 kts | 144° |
| 2026-05-07 19:22 | 55.48641 | -4.29338 | 15876 ft | 427 kts | 144° |
| 2026-05-07 19:23 | 55.46226 | -4.26238 | 16778 ft | 433 kts | 144° |
| 2026-05-07 19:23 | 55.43766 | -4.23111 | 17656 ft | 439 kts | 144° |
| 2026-05-07 19:23 | 55.41269 | -4.19949 | 18506 ft | 445 kts | 144° |
| 2026-05-07 19:23 | 55.38750 | -4.16749 | 19323 ft | 450 kts | 144° |
| 2026-05-07 19:24 | 55.36192 | -4.13500 | 20095 ft | 456 kts | 144° |
| 2026-05-07 19:24 | 55.33604 | -4.10225 | 20848 ft | 461 kts | 144° |
| 2026-05-07 19:24 | 55.30984 | -4.06919 | 21578 ft | 467 kts | 144° |
| 2026-05-07 19:24 | 55.28333 | -4.03577 | 22296 ft | 472 kts | 144° |
| 2026-05-07 19:25 | 55.25652 | -4.00200 | 22992 ft | 476 kts | 144° |
| 2026-05-07 19:25 | 55.22948 | -3.96800 | 23671 ft | 481 kts | 144° |
| 2026-05-07 19:25 | 55.20216 | -3.93373 | 24317 ft | 485 kts | 144° |
| 2026-05-07 19:25 | 55.17495 | -3.89966 | 24873 ft | 476 kts | 144° |
| 2026-05-07 19:26 | 55.14794 | -3.86588 | 24999 ft | 475 kts | 144° |
| 2026-05-07 19:26 | 55.12115 | -3.83243 | 24996 ft | 472 kts | 144° |
| 2026-05-07 19:26 | 55.09440 | -3.79911 | 24994 ft | 473 kts | 144° |
| 2026-05-07 19:26 | 55.06767 | -3.76585 | 24989 ft | 472 kts | 144° |
| 2026-05-07 19:27 | 55.04096 | -3.73267 | 24989 ft | 472 kts | 144° |
| 2026-05-07 19:27 | 55.01420 | -3.69949 | 24997 ft | 472 kts | 144° |
| 2026-05-07 19:27 | 54.98765 | -3.66663 | 24991 ft | 466 kts | 144° |
| 2026-05-07 19:27 | 54.96121 | -3.63395 | 24991 ft | 465 kts | 144° |
| 2026-05-07 19:28 | 54.93483 | -3.60141 | 24995 ft | 465 kts | 145° |
| 2026-05-07 19:28 | 54.90848 | -3.56895 | 24999 ft | 464 kts | 145° |
| 2026-05-07 19:28 | 54.88217 | -3.53659 | 24995 ft | 464 kts | 145° |
| 2026-05-07 19:28 | 54.85581 | -3.50423 | 24989 ft | 464 kts | 145° |
| 2026-05-07 19:29 | 54.82948 | -3.47196 | 24989 ft | 464 kts | 145° |
| 2026-05-07 19:29 | 54.80314 | -3.43972 | 24993 ft | 464 kts | 145° |
| 2026-05-07 19:29 | 54.77674 | -3.40747 | 24993 ft | 464 kts | 145° |
| 2026-05-07 19:29 | 54.75033 | -3.37525 | 24994 ft | 465 kts | 145° |
| 2026-05-07 19:30 | 54.72392 | -3.34300 | 24990 ft | 464 kts | 143° |
| 2026-05-07 19:30 | 54.69825 | -3.30900 | 24997 ft | 465 kts | 143° |
| 2026-05-07 19:30 | 54.67261 | -3.27618 | 25001 ft | 464 kts | 144° |
| 2026-05-07 19:30 | 54.64658 | -3.24305 | 24997 ft | 465 kts | 143° |
| 2026-05-07 19:31 | 54.62036 | -3.20886 | 24997 ft | 467 kts | 143° |
| 2026-05-07 19:31 | 54.59496 | -3.17555 | 25001 ft | 464 kts | 143° |
| 2026-05-07 19:31 | 54.56852 | -3.14360 | 25017 ft | 464 kts | 150° |
| 2026-05-07 19:31 | 54.53913 | -3.12044 | 25002 ft | 466 kts | 160° |
| 2026-05-07 19:32 | 54.50830 | -3.10343 | 25006 ft | 466 kts | 164° |
| 2026-05-07 19:32 | 54.47698 | -3.08807 | 25004 ft | 467 kts | 164° |
| 2026-05-07 19:32 | 54.45602 | -3.07701 | 25015 ft | 467 kts | 161° |
| 2026-05-07 19:32 | 54.42588 | -3.05677 | 24997 ft | 463 kts | 156° |
| 2026-05-07 19:33 | 54.39688 | -3.03420 | 25015 ft | 464 kts | 155° |
| 2026-05-07 19:33 | 54.36721 | -3.01225 | 25009 ft | 464 kts | 159° |
| 2026-05-07 19:33 | 54.33700 | -2.99266 | 25002 ft | 464 kts | 160° |
| 2026-05-07 19:33 | 54.30681 | -2.97308 | 25006 ft | 464 kts | 159° |
| 2026-05-07 19:34 | 54.27693 | -2.95221 | 25007 ft | 463 kts | 158° |
| 2026-05-07 19:34 | 54.24706 | -2.93108 | 25000 ft | 464 kts | 158° |
| 2026-05-07 19:34 | 54.21702 | -2.91069 | 25004 ft | 464 kts | 159° |
| 2026-05-07 19:34 | 54.18696 | -2.89065 | 25003 ft | 463 kts | 159° |
| 2026-05-07 19:35 | 54.15698 | -2.87030 | 25008 ft | 464 kts | 158° |
| 2026-05-07 19:35 | 54.12709 | -2.84976 | 25002 ft | 464 kts | 158° |
| 2026-05-07 19:35 | 54.09712 | -2.82938 | 25008 ft | 464 kts | 159° |
| 2026-05-07 19:35 | 54.06714 | -2.80921 | 25005 ft | 464 kts | 159° |
| 2026-05-07 19:36 | 54.03713 | -2.78900 | 25009 ft | 464 kts | 158° |
| 2026-05-07 19:36 | 54.00713 | -2.76870 | 25008 ft | 464 kts | 158° |
| 2026-05-07 19:36 | 53.97714 | -2.74845 | 25002 ft | 464 kts | 159° |
| 2026-05-07 19:36 | 53.94718 | -2.72832 | 25001 ft | 464 kts | 159° |
| 2026-05-07 19:37 | 53.91716 | -2.70820 | 25001 ft | 464 kts | 159° |
| 2026-05-07 19:37 | 53.88710 | -2.68804 | 25010 ft | 464 kts | 159° |
| 2026-05-07 19:37 | 53.85707 | -2.66791 | 25005 ft | 464 kts | 159° |
| 2026-05-07 19:37 | 53.82709 | -2.64787 | 25007 ft | 464 kts | 159° |
| 2026-05-07 19:38 | 53.79705 | -2.62783 | 25005 ft | 464 kts | 159° |
| 2026-05-07 19:38 | 53.76701 | -2.60782 | 25001 ft | 463 kts | 159° |
| 2026-05-07 19:38 | 53.73698 | -2.58783 | 25011 ft | 464 kts | 159° |
| 2026-05-07 19:38 | 53.70694 | -2.56788 | 25005 ft | 464 kts | 159° |
| 2026-05-07 19:39 | 53.67686 | -2.54793 | 25000 ft | 465 kts | 159° |
| 2026-05-07 19:39 | 53.64671 | -2.52796 | 25006 ft | 466 kts | 159° |
| 2026-05-07 19:39 | 53.61655 | -2.50801 | 25007 ft | 467 kts | 159° |
| 2026-05-07 19:39 | 53.58644 | -2.48813 | 25002 ft | 465 kts | 159° |
| 2026-05-07 19:40 | 53.55587 | -2.46798 | 25006 ft | 464 kts | 159° |
| 2026-05-07 19:40 | 53.52581 | -2.44820 | 25001 ft | 464 kts | 159° |
| 2026-05-07 19:40 | 53.49576 | -2.42845 | 25011 ft | 464 kts | 159° |
| 2026-05-07 19:40 | 53.46569 | -2.40871 | 25001 ft | 464 kts | 159° |
| 2026-05-07 19:41 | 53.43561 | -2.38901 | 25001 ft | 464 kts | 159° |
| 2026-05-07 19:41 | 53.40554 | -2.36934 | 25006 ft | 464 kts | 159° |
| 2026-05-07 19:41 | 53.37546 | -2.34969 | 25011 ft | 464 kts | 159° |
| 2026-05-07 19:41 | 53.34539 | -2.33007 | 25001 ft | 464 kts | 159° |
| 2026-05-07 19:42 | 53.31527 | -2.31046 | 25007 ft | 464 kts | 159° |
| 2026-05-07 19:42 | 53.28516 | -2.29088 | 25001 ft | 464 kts | 159° |
| 2026-05-07 19:42 | 53.25508 | -2.27135 | 25007 ft | 464 kts | 159° |
| 2026-05-07 19:42 | 53.22501 | -2.25186 | 25006 ft | 464 kts | 159° |
| 2026-05-07 19:43 | 53.19494 | -2.23239 | 25005 ft | 464 kts | 159° |
| 2026-05-07 19:43 | 53.16483 | -2.21293 | 25000 ft | 464 kts | 159° |
| 2026-05-07 19:43 | 53.13489 | -2.19282 | 25007 ft | 464 kts | 156° |
| 2026-05-07 19:43 | 53.10513 | -2.17181 | 25002 ft | 464 kts | 158° |
| 2026-05-07 19:44 | 53.07505 | -2.15182 | 25001 ft | 464 kts | 158° |
| 2026-05-07 19:44 | 53.04518 | -2.13156 | 25001 ft | 465 kts | 157° |
| 2026-05-07 19:44 | 53.01541 | -2.11062 | 25005 ft | 465 kts | 157° |
| 2026-05-07 19:44 | 52.98560 | -2.08978 | 25006 ft | 465 kts | 158° |
| 2026-05-07 19:45 | 52.95583 | -2.06946 | 25002 ft | 465 kts | 158° |
| 2026-05-07 19:45 | 52.92594 | -2.04913 | 25013 ft | 465 kts | 158° |
| 2026-05-07 19:45 | 52.89604 | -2.02857 | 25006 ft | 464 kts | 158° |
| 2026-05-07 19:45 | 52.86621 | -2.00801 | 25003 ft | 464 kts | 158° |
| 2026-05-07 19:46 | 52.83656 | -1.98774 | 25008 ft | 464 kts | 158° |
| 2026-05-07 19:46 | 52.80647 | -1.96727 | 25004 ft | 464 kts | 158° |
| 2026-05-07 19:46 | 52.77664 | -1.94694 | 25010 ft | 464 kts | 158° |
| 2026-05-07 19:46 | 52.74677 | -1.92657 | 25003 ft | 464 kts | 158° |
| 2026-05-07 19:47 | 52.71691 | -1.90625 | 25002 ft | 464 kts | 158° |
| 2026-05-07 19:47 | 52.68703 | -1.88599 | 25000 ft | 464 kts | 158° |
| 2026-05-07 19:47 | 52.65712 | -1.86573 | 25010 ft | 464 kts | 158° |
| 2026-05-07 19:47 | 52.62726 | -1.84551 | 25008 ft | 464 kts | 158° |
| 2026-05-07 19:48 | 52.59739 | -1.82532 | 24998 ft | 465 kts | 158° |
| 2026-05-07 19:48 | 52.56746 | -1.80512 | 25001 ft | 465 kts | 158° |
| 2026-05-07 19:48 | 52.53793 | -1.78523 | 25012 ft | 464 kts | 158° |
| 2026-05-07 19:48 | 52.50808 | -1.76514 | 25008 ft | 464 kts | 158° |
| 2026-05-07 19:49 | 52.47781 | -1.74480 | 25007 ft | 463 kts | 158° |
| 2026-05-07 19:49 | 52.44875 | -1.72531 | 24688 ft | 453 kts | 158° |
| 2026-05-07 19:49 | 52.41963 | -1.70580 | 23946 ft | 452 kts | 158° |
| 2026-05-07 19:49 | 52.39061 | -1.68640 | 23261 ft | 450 kts | 158° |
| 2026-05-07 19:50 | 52.36177 | -1.66675 | 22603 ft | 448 kts | 154° |
| 2026-05-07 19:50 | 52.33530 | -1.64045 | 21946 ft | 445 kts | 143° |
| 2026-05-07 19:50 | 52.31187 | -1.60762 | 21294 ft | 442 kts | 136° |
| 2026-05-07 19:50 | 52.29011 | -1.57238 | 20643 ft | 439 kts | 135° |
| 2026-05-07 19:51 | 52.26849 | -1.53747 | 20016 ft | 435 kts | 137° |
| 2026-05-07 19:51 | 52.24562 | -1.50549 | 19406 ft | 431 kts | 141° |
| 2026-05-07 19:51 | 52.22228 | -1.47516 | 18809 ft | 427 kts | 141° |
| 2026-05-07 19:51 | 52.19972 | -1.44394 | 18229 ft | 423 kts | 139° |
| 2026-05-07 19:52 | 52.17790 | -1.41223 | 17643 ft | 418 kts | 139° |
| 2026-05-07 19:52 | 52.15606 | -1.38127 | 17098 ft | 414 kts | 140° |
| 2026-05-07 19:52 | 52.13416 | -1.35123 | 16543 ft | 409 kts | 140° |
| 2026-05-07 19:52 | 52.11259 | -1.32148 | 16064 ft | 404 kts | 140° |
| 2026-05-07 19:53 | 52.09162 | -1.29210 | 15876 ft | 391 kts | 139° |
| 2026-05-07 19:53 | 52.07138 | -1.26378 | 15743 ft | 377 kts | 140° |
| 2026-05-07 19:53 | 52.05171 | -1.23652 | 15607 ft | 365 kts | 140° |
| 2026-05-07 19:53 | 52.03265 | -1.21019 | 15476 ft | 355 kts | 140° |
| 2026-05-07 19:54 | 52.01412 | -1.18452 | 15349 ft | 345 kts | 140° |
| 2026-05-07 19:54 | 51.99610 | -1.15954 | 15224 ft | 336 kts | 140° |
| 2026-05-07 19:54 | 51.97852 | -1.13525 | 15105 ft | 328 kts | 140° |
| 2026-05-07 19:54 | 51.96137 | -1.11158 | 14995 ft | 320 kts | 140° |
| 2026-05-07 19:55 | 51.94450 | -1.08832 | 14692 ft | 319 kts | 140° |
| 2026-05-07 19:55 | 51.92754 | -1.06496 | 14331 ft | 320 kts | 140° |
| 2026-05-07 19:55 | 51.91056 | -1.04158 | 13983 ft | 321 kts | 140° |
| 2026-05-07 19:55 | 51.89354 | -1.01817 | 13631 ft | 321 kts | 140° |
| 2026-05-07 19:56 | 51.87652 | -0.99480 | 13279 ft | 321 kts | 140° |
| 2026-05-07 19:56 | 51.85950 | -0.97137 | 12925 ft | 321 kts | 137° |
| 2026-05-07 19:56 | 51.84566 | -0.94327 | 12589 ft | 321 kts | 120° |
| 2026-05-07 19:56 | 51.83576 | -0.91090 | 12228 ft | 321 kts | 114° |
| 2026-05-07 19:57 | 51.82627 | -0.87828 | 11880 ft | 320 kts | 124° |
| 2026-05-07 19:57 | 51.81083 | -0.85274 | 11528 ft | 320 kts | 147° |
| 2026-05-07 19:57 | 51.79116 | -0.83615 | 11150 ft | 320 kts | 147° |
| 2026-05-07 19:57 | 51.77395 | -0.81345 | 10763 ft | 320 kts | 141° |
| 2026-05-07 19:58 | 51.75592 | -0.79232 | 10360 ft | 321 kts | 147° |
| 2026-05-07 19:58 | 51.73705 | -0.77350 | 9911 ft | 314 kts | 149° |
| 2026-05-07 19:58 | 51.71858 | -0.75613 | 9443 ft | 301 kts | 150° |
| 2026-05-07 19:58 | 51.70075 | -0.73965 | 8984 ft | 290 kts | 150° |
| 2026-05-07 19:59 | 51.68355 | -0.72384 | 8538 ft | 280 kts | 150° |
| 2026-05-07 19:59 | 51.66732 | -0.70894 | 8149 ft | 257 kts | 150° |
| 2026-05-07 19:59 | 51.65139 | -0.69862 | 7743 ft | 241 kts | 176° |
| 2026-05-07 19:59 | 51.63509 | -0.70250 | 7383 ft | 240 kts | 207° |
| 2026-05-07 20:00 | 51.62259 | -0.71904 | 7034 ft | 235 kts | 233° |
| 2026-05-07 20:00 | 51.61333 | -0.74134 | 6720 ft | 240 kts | 239° |
| 2026-05-07 20:00 | 51.60495 | -0.76441 | 6435 ft | 238 kts | 240° |
| 2026-05-07 20:00 | 51.59670 | -0.78767 | 6099 ft | 235 kts | 240° |
| 2026-05-07 20:01 | 51.58867 | -0.81041 | 5972 ft | 235 kts | 240° |
| 2026-05-07 20:01 | 51.58059 | -0.83333 | 5933 ft | 236 kts | 240° |
| 2026-05-07 20:01 | 51.57247 | -0.85632 | 5627 ft | 235 kts | 240° |
| 2026-05-07 20:01 | 51.56348 | -0.87783 | 5300 ft | 232 kts | 222° |
| 2026-05-07 20:02 | 51.54937 | -0.88955 | 4988 ft | 231 kts | 191° |
| 2026-05-07 20:02 | 51.53345 | -0.89198 | 4675 ft | 230 kts | 182° |
| 2026-05-07 20:02 | 51.51751 | -0.89242 | 4362 ft | 228 kts | 181° |
| 2026-05-07 20:02 | 51.50188 | -0.89246 | 4033 ft | 221 kts | 177° |
| 2026-05-07 20:03 | 51.48779 | -0.88548 | 3949 ft | 208 kts | 147° |
| 2026-05-07 20:03 | 51.47761 | -0.87018 | 3933 ft | 197 kts | 119° |
| 2026-05-07 20:03 | 51.47484 | -0.84919 | 3959 ft | 194 kts | 87° |
| 2026-05-07 20:03 | 51.47500 | -0.82769 | 3961 ft | 192 kts | 89° |
| 2026-05-07 20:04 | 51.47514 | -0.80626 | 3921 ft | 193 kts | 89° |
| 2026-05-07 20:04 | 51.47528 | -0.78482 | 3695 ft | 191 kts | 89° |
| 2026-05-07 20:04 | 51.47541 | -0.76376 | 3445 ft | 187 kts | 89° |
| 2026-05-07 20:04 | 51.47555 | -0.74309 | 3196 ft | 184 kts | 89° |
| 2026-05-07 20:05 | 51.47568 | -0.72277 | 2943 ft | 181 kts | 89° |
| 2026-05-07 20:05 | 51.47581 | -0.70274 | 2725 ft | 179 kts | 89° |
| 2026-05-07 20:05 | 51.47594 | -0.68295 | 2477 ft | 176 kts | 89° |
| 2026-05-07 20:05 | 51.47612 | -0.66390 | 2255 ft | 166 kts | 89° |
| 2026-05-07 20:06 | 51.47625 | -0.64555 | 2046 ft | 163 kts | 89° |
| 2026-05-07 20:06 | 51.47637 | -0.62750 | 1835 ft | 160 kts | 89° |
| 2026-05-07 20:06 | 51.47648 | -0.60966 | 1631 ft | 159 kts | 89° |
| 2026-05-07 20:06 | 51.47660 | -0.59240 | 1425 ft | 152 kts | 89° |
| 2026-05-07 20:07 | 51.47671 | -0.57547 | 1217 ft | 151 kts | 89° |
| 2026-05-07 20:07 | 51.47682 | -0.55866 | 1015 ft | 150 kts | 89° |
| 2026-05-07 20:07 | 51.47696 | -0.54194 | 789 ft | 150 kts | 85° |
| 2026-05-07 20:07 | 51.47739 | -0.52537 | 595 ft | 147 kts | 91° |
| 2026-05-07 20:08 | 51.47734 | -0.50891 | 421 ft | 146 kts | 87° |
| 2026-05-07 20:08 | 51.47747 | -0.49251 | 250 ft | 147 kts | 90° |
| 2026-05-07 20:08 | 51.47754 | -0.47627 | 118 ft | 145 kts | 88° |
| 2026-05-07 20:08 | 51.47756 | -0.46104 | 99 ft | 121 kts | 91° |
| 2026-05-07 20:09 | 51.47765 | -0.45038 | 99 ft | 82 kts | 88° |
| 2026-05-07 20:09 | 51.47735 | -0.44485 | 98 ft | 37 kts | 114° |
| 2026-05-07 20:09 | 51.47650 | -0.44237 | 98 ft | 10 kts | 153° |
| 2026-05-07 20:10 | 51.47597 | -0.44345 | 96 ft | 15 kts | 266° |
| 2026-05-07 20:10 | 51.47597 | -0.44470 | 96 ft | 17 kts | 271° |
| 2026-05-07 20:10 | 51.47598 | -0.44584 | 96 ft | 2 kts | 271° |
| 2026-05-07 20:10 | 51.47598 | -0.44613 | 96 ft | 3 kts | 271° |
| 2026-05-07 20:11 | 51.47598 | -0.44647 | 96 ft | 3 kts | 271° |
| 2026-05-07 20:11 | 51.47599 | -0.44748 | 96 ft | 16 kts | 271° |
| 2026-05-07 20:11 | 51.47599 | -0.44979 | 96 ft | 22 kts | 269° |
| 2026-05-07 20:11 | 51.47596 | -0.45222 | 96 ft | 22 kts | 269° |
| 2026-05-07 20:12 | 51.47596 | -0.45462 | 99 ft | 21 kts | 270° |
| 2026-05-07 20:12 | 51.47595 | -0.45700 | 99 ft | 21 kts | 270° |
| 2026-05-07 20:12 | 51.47595 | -0.45906 | 99 ft | 18 kts | 270° |
| 2026-05-07 20:12 | 51.47595 | -0.46101 | 99 ft | 17 kts | 269° |
| 2026-05-07 20:13 | 51.47594 | -0.46291 | 96 ft | 17 kts | 269° |
| 2026-05-07 20:13 | 51.47593 | -0.46479 | 96 ft | 17 kts | 269° |
| 2026-05-07 20:13 | 51.47592 | -0.46667 | 96 ft | 17 kts | 269° |
| 2026-05-07 20:13 | 51.47590 | -0.46846 | 96 ft | 16 kts | 261° |
| 2026-05-07 20:14 | 51.47556 | -0.46923 | 100 ft | 7 kts | 201° |
| 2026-05-07 20:14 | 51.47518 | -0.46921 | 99 ft | 5 kts | 163° |
| 2026-05-07 20:14 | 51.47469 | -0.46900 | 99 ft | 9 kts | 166° |
| 2026-05-07 20:14 | 51.47399 | -0.46873 | 97 ft | 12 kts | 168° |
| 2026-05-07 20:15 | 51.47313 | -0.46866 | 96 ft | 13 kts | 180° |
| 2026-05-07 20:15 | 51.47255 | -0.46848 | 97 ft | 8 kts | 139° |
| 2026-05-07 20:15 | 51.47238 | -0.46741 | 96 ft | 13 kts | 86° |
| 2026-05-07 20:15 | 51.47246 | -0.46586 | 96 ft | 11 kts | 89° |
| 2026-05-07 20:16 | 51.47243 | -0.46496 | 96 ft | 9 kts | 92° |
| 2026-05-07 20:16 | 51.47223 | -0.46410 | 98 ft | 5 kts | 135° |
| 2026-05-07 20:16 | 51.47196 | -0.46376 | 98 ft | 5 kts | 144° |
| 2026-05-07 20:16 | 51.47147 | -0.46321 | 97 ft | 11 kts | 146° |
| 2026-05-07 20:17 | 51.47103 | -0.46276 | 98 ft | 2 kts | 166° |
| 2026-05-07 20:17 | 51.47084 | -0.46280 | 99 ft | 7 kts | 199° |
| 2026-05-07 20:17 | 51.47057 | -0.46312 | 98 ft | 3 kts | 237° |
| 2026-05-07 20:17 | 51.47045 | -0.46343 | 99 ft | 3 kts | 237° |
| 2026-05-07 20:18 | 51.47040 | -0.46353 | 98 ft | 0 kts | 237° |